Time;durP1;ratioP1;P1;durP2;ratioP2;P2;SDS_P1;SDS_P2;PMS_P1;PMS_P2;Temp;Humidity;BMP_temperature;BMP_pressure;BME280_temperature;BME280_humidity;BME280_pressure;Samples;Min_cycle;Max_cycle;Signal;HPM_P1;HPM_P2
2022/04/15 00:00:36;;;;;;;32.63;23.42;;;12.00;99.90;;;;;;2507411;23;20003;-72
2022/04/15 00:01:38;;;;;;;29.00;22.02;;;12.00;99.90;;;;;;2508259;23;20003;-73
2022/04/15 00:02:39;;;;;;;31.23;23.13;;;12.00;99.90;;;;;;2508069;23;20010;-74
2022/04/15 00:03:39;;;;;;;28.83;22.27;;;12.00;99.90;;;;;;2495232;23;20019;-75
2022/04/15 00:04:40;;;;;;;30.95;23.15;;;12.00;99.90;;;;;;2495517;23;20088;-73
2022/04/15 00:05:40;;;;;;;31.35;22.35;;;12.00;99.90;;;;;;2507225;23;20015;-73
2022/04/15 00:06:41;;;;;;;30.27;21.73;;;12.00;99.90;;;;;;2495298;23;20062;-73
2022/04/15 00:07:42;;;;;;;31.33;21.45;;;12.00;99.90;;;;;;2495191;23;20022;-72
2022/04/15 00:08:42;;;;;;;29.48;20.95;;;12.00;99.90;;;;;;2507835;23;20018;-73
2022/04/15 00:09:43;;;;;;;28.88;21.40;;;12.00;99.90;;;;;;2495155;23;20015;-73
2022/04/15 00:10:45;;;;;;;27.75;21.00;;;12.00;99.90;;;;;;2495194;23;20018;-72
2022/04/15 00:11:46;;;;;;;27.02;20.73;;;12.00;99.90;;;;;;2508119;23;20446;-72
2022/04/15 00:12:46;;;;;;;26.40;20.25;;;12.00;99.90;;;;;;2507063;23;20011;-71
2022/04/15 00:13:48;;;;;;;29.45;21.40;;;12.00;99.90;;;;;;2506974;23;20137;-72
2022/04/15 00:14:48;;;;;;;27.63;20.05;;;12.00;99.90;;;;;;2507845;23;20038;-71
2022/04/15 00:15:49;;;;;;;27.67;20.30;;;12.00;99.90;;;;;;2506908;23;20022;-70
2022/04/15 00:16:50;;;;;;;28.50;20.45;;;12.00;99.90;;;;;;2495112;23;20042;-73
2022/04/15 00:17:51;;;;;;;24.67;19.60;;;12.00;99.90;;;;;;2495202;23;20011;-73
2022/04/15 00:18:52;;;;;;;26.45;19.13;;;12.00;99.90;;;;;;2495143;23;20393;-72
2022/04/15 00:19:52;;;;;;;23.52;18.90;;;12.00;99.90;;;;;;2483249;23;20007;-73
2022/04/15 00:20:53;;;;;;;25.23;18.80;;;12.00;99.90;;;;;;2483247;23;20457;-71
2022/04/15 00:21:54;;;;;;;23.17;18.35;;;12.10;99.90;;;;;;2495008;23;20135;-71
2022/04/15 00:22:58;;;;;;;23.75;18.70;;;12.10;99.90;;;;;;2506723;23;20111;-71
2022/04/15 00:23:58;;;;;;;23.52;18.45;;;12.10;99.90;;;;;;2506624;23;20003;-71
2022/04/15 00:24:59;;;;;;;23.15;17.92;;;12.10;99.90;;;;;;2507649;23;20089;-73
2022/04/15 00:26:00;;;;;;;23.52;18.67;;;12.10;99.90;;;;;;2507772;23;20352;-72
2022/04/15 00:27:01;;;;;;;24.95;19.52;;;12.10;99.90;;;;;;2507689;23;20049;-73
2022/04/15 00:28:02;;;;;;;28.20;20.60;;;12.10;99.90;;;;;;2507675;23;20021;-72
2022/04/15 00:29:06;;;;;;;24.27;19.20;;;12.10;99.90;;;;;;2507748;23;20113;-73
2022/04/15 00:30:08;;;;;;;24.23;19.20;;;12.10;99.90;;;;;;2506796;23;20007;-73
2022/04/15 00:31:09;;;;;;;24.15;19.45;;;12.10;99.90;;;;;;2506996;23;20013;-73
2022/04/15 00:32:09;;;;;;;24.92;18.85;;;12.10;99.90;;;;;;2507884;23;20038;-73
2022/04/15 00:33:10;;;;;;;23.65;18.45;;;12.10;99.90;;;;;;2507501;23;20017;-72
2022/04/15 00:34:11;;;;;;;23.88;18.42;;;12.20;99.90;;;;;;2506716;23;20522;-72
2022/04/15 00:35:11;;;;;;;24.30;19.80;;;12.20;99.90;;;;;;2506924;23;20006;-72
2022/04/15 00:36:12;;;;;;;25.83;19.17;;;12.20;99.90;;;;;;2506934;23;20011;-72
2022/04/15 00:37:13;;;;;;;23.20;18.73;;;12.20;99.90;;;;;;2506835;23;20417;-72
2022/04/15 00:38:13;;;;;;;22.88;18.30;;;12.20;99.90;;;;;;2508075;23;20078;-72
2022/04/15 00:39:14;;;;;;;22.27;18.38;;;12.20;99.90;;;;;;2507855;23;20006;-72
2022/04/15 00:40:15;;;;;;;24.98;19.10;;;12.20;99.90;;;;;;2507722;23;20018;-72
2022/04/15 00:41:16;;;;;;;23.40;18.90;;;12.20;99.90;;;;;;2507753;23;19999;-72
2022/04/15 00:42:17;;;;;;;23.00;19.02;;;12.20;99.90;;;;;;2507858;23;20029;-72
2022/04/15 00:43:18;;;;;;;24.92;19.10;;;12.20;99.90;;;;;;2507388;23;20347;-71
2022/04/15 00:44:18;;;;;;;23.25;19.52;;;12.20;99.90;;;;;;2507619;23;20014;-72
2022/04/15 00:45:19;;;;;;;23.15;18.80;;;12.20;99.90;;;;;;2507763;23;20011;-71
2022/04/15 00:46:20;;;;;;;23.88;18.75;;;12.20;99.90;;;;;;2507709;23;20007;-72
2022/04/15 00:47:39;;;;;;;25.25;18.73;;;12.20;99.90;;;;;;2507551;23;20117;-69
2022/04/15 00:48:40;;;;;;;22.10;17.88;;;12.10;99.90;;;;;;2507493;23;20032;-69
2022/04/15 00:49:40;;;;;;;23.13;18.63;;;12.10;99.90;;;;;;2507421;23;19999;-70
2022/04/15 00:50:41;;;;;;;22.38;18.23;;;12.10;99.90;;;;;;2507422;23;20039;-69
2022/04/15 00:51:43;;;;;;;20.85;17.50;;;12.10;99.90;;;;;;2506927;23;20045;-69
2022/04/15 00:52:46;;;;;;;22.15;17.88;;;12.20;99.90;;;;;;2506803;23;20007;-69
2022/04/15 00:53:49;;;;;;;22.13;17.38;;;12.20;99.90;;;;;;2507112;23;20074;-70
2022/04/15 00:54:52;;;;;;;21.02;16.98;;;12.10;99.90;;;;;;2507670;23;20038;-70
2022/04/15 00:55:57;;;;;;;20.77;16.88;;;12.20;99.90;;;;;;2506484;23;20150;-70
2022/04/15 00:57:01;;;;;;;21.88;17.52;;;12.20;99.90;;;;;;2507073;23;20419;-70
2022/04/15 00:58:03;;;;;;;21.17;17.08;;;12.20;99.90;;;;;;2506866;23;20022;-69
2022/04/15 00:59:07;;;;;;;22.15;17.73;;;12.20;99.90;;;;;;2506757;23;20123;-69
2022/04/15 01:00:10;;;;;;;26.05;19.75;;;12.20;99.90;;;;;;2507396;23;20007;-70
2022/04/15 01:01:11;;;;;;;22.08;17.08;;;12.20;99.90;;;;;;2507745;23;20010;-70
2022/04/15 01:02:14;;;;;;;22.70;17.50;;;12.20;99.90;;;;;;2507603;23;20009;-70
2022/04/15 01:03:21;;;;;;;23.73;17.92;;;12.20;99.90;;;;;;2507390;23;20007;-70
2022/04/15 01:04:22;;;;;;;28.27;20.42;;;12.30;99.90;;;;;;2507413;23;20002;-70
2022/04/15 01:05:24;;;;;;;25.40;18.65;;;12.20;99.90;;;;;;2507528;23;20634;-70
2022/04/15 01:06:30;;;;;;;24.42;17.83;;;12.30;99.90;;;;;;2507385;23;20014;-70
2022/04/15 01:07:39;;;;;;;23.40;18.55;;;12.30;99.90;;;;;;2507472;23;20007;-70
2022/04/15 01:08:41;;;;;;;26.35;19.50;;;12.30;99.90;;;;;;2507511;23;19999;-70
2022/04/15 01:09:44;;;;;;;24.85;18.65;;;12.30;99.90;;;;;;2507405;23;20007;-70
2022/04/15 01:10:47;;;;;;;24.05;18.75;;;12.30;99.90;;;;;;2507616;23;20419;-70
2022/04/15 01:11:50;;;;;;;24.92;18.50;;;12.30;99.90;;;;;;2507567;23;20014;-70
2022/04/15 01:12:54;;;;;;;28.20;20.83;;;12.30;99.90;;;;;;2507603;23;20511;-70
2022/04/15 01:13:59;;;;;;;26.17;20.05;;;12.30;99.90;;;;;;2507204;23;20017;-70
2022/04/15 01:15:03;;;;;;;24.98;19.00;;;12.30;99.90;;;;;;2507668;23;20015;-70
2022/04/15 01:16:08;;;;;;;23.73;18.38;;;12.30;99.90;;;;;;2507473;23;20015;-70
2022/04/15 01:17:09;;;;;;;23.80;17.85;;;12.30;99.90;;;;;;2507956;23;20003;-70
2022/04/15 01:18:09;;;;;;;24.17;18.60;;;12.30;99.90;;;;;;2507776;23;20070;-71
2022/04/15 01:19:10;;;;;;;24.48;18.67;;;12.30;99.90;;;;;;2506659;23;20038;-71
2022/04/15 01:20:12;;;;;;;22.77;17.77;;;12.20;99.90;;;;;;2506695;23;19999;-71
2022/04/15 01:21:14;;;;;;;22.63;17.75;;;12.30;99.90;;;;;;2507602;23;20013;-69
2022/04/15 01:22:17;;;;;;;28.80;20.63;;;12.30;99.90;;;;;;2506811;23;20452;-70
2022/04/15 01:23:18;;;;;;;27.02;20.55;;;12.30;99.90;;;;;;2506599;23;20010;-71
2022/04/15 01:24:19;;;;;;;26.88;19.90;;;12.30;99.90;;;;;;2507577;23;19995;-70
2022/04/15 01:25:19;;;;;;;23.45;18.85;;;12.30;99.90;;;;;;2507623;23;20006;-70
2022/04/15 01:26:20;;;;;;;22.85;18.63;;;12.20;99.90;;;;;;2507551;23;20063;-71
2022/04/15 01:27:31;;;;;;;22.98;18.23;;;12.30;99.90;;;;;;2507590;23;20026;-70
2022/04/15 01:28:33;;;;;;;22.27;17.48;;;12.30;99.90;;;;;;2507619;23;20062;-71
2022/04/15 01:29:37;;;;;;;22.50;17.50;;;12.30;99.90;;;;;;2507567;23;20435;-70
2022/04/15 01:30:38;;;;;;;20.15;17.02;;;12.30;99.90;;;;;;2507159;23;20015;-70
2022/04/15 01:31:38;;;;;;;21.98;17.02;;;12.30;99.90;;;;;;2506804;23;20003;-70
2022/04/15 01:32:39;;;;;;;24.70;18.17;;;12.30;99.90;;;;;;2507202;23;20007;-70
2022/04/15 01:33:40;;;;;;;26.23;18.65;;;12.30;99.90;;;;;;2507332;23;20453;-70
2022/04/15 01:34:40;;;;;;;25.02;19.33;;;12.30;99.90;;;;;;2506569;23;20081;-70
2022/04/15 01:35:41;;;;;;;26.17;20.00;;;12.20;99.90;;;;;;2506563;23;20015;-71
2022/04/15 01:36:42;;;;;;;27.98;19.98;;;12.20;99.90;;;;;;2506860;23;20010;-71
2022/04/15 01:37:44;;;;;;;26.02;18.85;;;12.20;99.90;;;;;;2507491;23;20118;-70
2022/04/15 01:38:45;;;;;;;25.83;19.38;;;12.20;99.90;;;;;;2507570;23;20011;-70
2022/04/15 01:39:46;;;;;;;26.85;19.23;;;12.20;99.90;;;;;;2507413;23;20011;-70
2022/04/15 01:40:47;;;;;;;31.90;22.23;;;12.20;99.90;;;;;;2507403;23;20066;-70
2022/04/15 01:41:47;;;;;;;31.23;22.23;;;12.20;99.90;;;;;;2507261;23;20007;-70
2022/04/15 01:42:48;;;;;;;31.77;22.65;;;12.20;99.90;;;;;;2507475;23;20003;-70
2022/04/15 01:43:49;;;;;;;31.92;21.92;;;12.20;99.90;;;;;;2506961;23;20034;-70
2022/04/15 01:44:50;;;;;;;30.42;21.20;;;12.20;99.90;;;;;;2507350;23;20019;-72
2022/04/15 01:45:50;;;;;;;30.05;21.52;;;12.20;99.90;;;;;;2507474;23;20102;-70
2022/04/15 01:46:51;;;;;;;30.67;21.95;;;12.20;99.90;;;;;;2507474;23;20407;-70
2022/04/15 01:47:52;;;;;;;30.55;20.63;;;12.20;99.90;;;;;;2506874;23;20491;-70
2022/04/15 01:48:52;;;;;;;28.73;19.67;;;12.20;99.90;;;;;;2494993;23;20022;-72
2022/04/15 01:49:53;;;;;;;26.17;19.35;;;12.20;99.90;;;;;;2494828;23;20015;-70
2022/04/15 01:50:54;;;;;;;30.95;22.17;;;12.20;99.90;;;;;;2506584;23;20028;-70
2022/04/15 01:51:54;;;;;;;32.00;22.55;;;12.20;99.90;;;;;;2506465;23;20552;-70
2022/04/15 01:52:56;;;;;;;30.83;21.77;;;12.20;99.90;;;;;;2507454;23;20440;-70
2022/04/15 01:53:56;;;;;;;30.40;21.73;;;12.20;99.90;;;;;;2507099;23;20006;-69
2022/04/15 01:54:57;;;;;;;30.38;22.23;;;12.20;99.90;;;;;;2507424;23;20075;-71
2022/04/15 01:55:58;;;;;;;29.63;21.42;;;12.20;99.90;;;;;;2507257;23;20021;-70
2022/04/15 01:56:58;;;;;;;31.20;22.08;;;12.20;99.90;;;;;;2507529;23;20010;-71
2022/04/15 01:57:59;;;;;;;26.88;19.83;;;12.20;99.90;;;;;;2507434;23;20054;-69
2022/04/15 01:59:00;;;;;;;27.88;20.52;;;12.20;99.90;;;;;;2507479;23;20061;-69
2022/04/15 02:00:00;;;;;;;30.05;20.98;;;12.20;99.90;;;;;;2506418;23;20043;-69
2022/04/15 02:01:01;;;;;;;27.40;20.38;;;12.20;99.90;;;;;;2506702;23;20078;-69
2022/04/15 02:02:02;;;;;;;30.55;21.45;;;12.20;99.90;;;;;;2507163;23;20606;-69
2022/04/15 02:03:03;;;;;;;34.42;23.52;;;12.20;99.90;;;;;;2507306;23;20007;-70
2022/04/15 02:04:04;;;;;;;34.35;24.65;;;12.20;99.90;;;;;;2507091;23;20732;-70
2022/04/15 02:05:05;;;;;;;30.75;21.67;;;12.20;99.90;;;;;;2507318;23;20526;-70
2022/04/15 02:06:05;;;;;;;29.15;21.83;;;12.20;99.90;;;;;;2507288;23;20029;-70
2022/04/15 02:07:06;;;;;;;31.58;21.25;;;12.20;99.90;;;;;;2507349;23;20010;-70
2022/04/15 02:08:07;;;;;;;32.05;21.88;;;12.20;99.90;;;;;;2507365;23;20029;-70
2022/04/15 02:09:07;;;;;;;31.05;21.67;;;12.20;99.90;;;;;;2507395;23;20010;-71
2022/04/15 02:10:09;;;;;;;29.40;21.63;;;12.20;99.90;;;;;;2507190;23;20011;-70
2022/04/15 02:11:09;;;;;;;30.63;21.75;;;12.20;99.90;;;;;;2507468;23;20419;-69
2022/04/15 02:12:10;;;;;;;29.08;20.77;;;12.20;99.90;;;;;;2507540;23;20007;-69
2022/04/15 02:13:10;;;;;;;29.73;21.48;;;12.20;99.90;;;;;;2507167;23;19999;-70
2022/04/15 02:14:12;;;;;;;27.85;21.13;;;12.20;99.90;;;;;;2507436;23;20046;-70
2022/04/15 02:15:13;;;;;;;29.02;20.65;;;12.20;99.90;;;;;;2507402;23;20524;-70
2022/04/15 02:16:13;;;;;;;28.48;20.23;;;12.20;99.90;;;;;;2506095;23;20053;-70
2022/04/15 02:17:14;;;;;;;28.65;21.23;;;12.20;99.90;;;;;;2506487;23;20106;-69
2022/04/15 02:18:15;;;;;;;29.15;21.02;;;12.10;99.90;;;;;;2506677;23;20023;-70
2022/04/15 02:19:16;;;;;;;28.92;20.58;;;12.20;99.90;;;;;;2507473;23;20026;-70
2022/04/15 02:20:16;;;;;;;28.55;21.25;;;12.20;99.90;;;;;;2507493;23;20014;-70
2022/04/15 02:21:17;;;;;;;31.70;22.33;;;12.20;99.90;;;;;;2507696;23;20436;-69
2022/04/15 02:22:17;;;;;;;30.23;22.25;;;12.20;99.90;;;;;;2506921;23;20424;-70
2022/04/15 02:23:18;;;;;;;30.17;21.33;;;12.20;99.90;;;;;;2506497;23;20471;-70
2022/04/15 02:24:18;;;;;;;31.15;22.58;;;12.20;99.90;;;;;;2507413;23;20003;-70
2022/04/15 02:25:19;;;;;;;31.80;22.25;;;12.20;99.90;;;;;;2507389;23;20096;-70
2022/04/15 02:26:20;;;;;;;30.58;21.95;;;12.20;99.90;;;;;;2506332;23;20010;-70
2022/04/15 02:27:20;;;;;;;30.85;22.13;;;12.20;99.90;;;;;;2506762;23;19998;-70
2022/04/15 02:28:21;;;;;;;31.08;22.00;;;12.20;99.90;;;;;;2507445;23;20441;-70
2022/04/15 02:29:22;;;;;;;30.83;21.85;;;12.10;99.90;;;;;;2507725;23;20042;-70
2022/04/15 02:30:22;;;;;;;30.95;22.13;;;12.10;99.90;;;;;;2507419;23;20451;-69
2022/04/15 02:31:23;;;;;;;31.65;21.88;;;12.10;99.90;;;;;;2507691;23;20006;-69
2022/04/15 02:32:24;;;;;;;32.70;22.52;;;12.10;99.90;;;;;;2507587;23;20105;-70
2022/04/15 02:33:24;;;;;;;31.67;22.15;;;12.10;99.90;;;;;;2507126;23;20087;-69
2022/04/15 02:34:25;;;;;;;30.25;22.33;;;12.10;99.90;;;;;;2506547;23;20018;-70
2022/04/15 02:35:25;;;;;;;30.80;21.83;;;12.10;99.90;;;;;;2494749;23;20082;-70
2022/04/15 02:36:26;;;;;;;29.60;21.95;;;12.10;99.90;;;;;;2494942;23;19999;-70
2022/04/15 02:37:27;;;;;;;30.60;21.75;;;12.00;99.90;;;;;;2507286;23;20014;-69
2022/04/15 02:38:27;;;;;;;31.00;21.63;;;12.00;99.90;;;;;;2507318;23;20002;-70
2022/04/15 02:39:28;;;;;;;30.95;21.98;;;12.00;99.90;;;;;;2494671;23;20058;-70
2022/04/15 02:40:28;;;;;;;30.90;21.90;;;12.00;99.90;;;;;;2494712;23;20463;-71
2022/04/15 02:41:29;;;;;;;31.63;22.33;;;12.00;99.90;;;;;;2507362;23;19999;-70
2022/04/15 02:42:30;;;;;;;32.40;22.02;;;12.00;99.90;;;;;;2507285;23;20022;-70
2022/04/15 02:43:35;;;;;;;33.78;23.75;;;12.00;99.90;;;;;;2507006;23;20090;-71
2022/04/15 02:44:37;;;;;;;40.50;26.13;;;12.00;99.90;;;;;;2506693;23;20451;-70
2022/04/15 02:45:38;;;;;;;39.13;26.88;;;12.00;99.90;;;;;;2494923;23;20010;-70
2022/04/15 02:46:38;;;;;;;36.53;25.92;;;12.00;99.90;;;;;;2494565;23;20375;-70
2022/04/15 02:47:40;;;;;;;36.38;26.38;;;12.00;99.90;;;;;;2507471;23;20552;-70
2022/04/15 02:48:42;;;;;;;36.13;25.45;;;12.00;99.90;;;;;;2507485;23;20436;-71
2022/04/15 02:49:42;;;;;;;35.83;25.27;;;11.90;99.90;;;;;;2507438;23;20006;-71
2022/04/15 02:50:45;;;;;;;36.67;24.55;;;11.90;99.90;;;;;;2507439;23;20057;-71
2022/04/15 02:51:46;;;;;;;39.75;26.50;;;11.90;99.90;;;;;;2506909;23;20066;-71
2022/04/15 02:52:47;;;;;;;40.20;26.40;;;11.90;99.90;;;;;;2506549;23;20359;-71
2022/04/15 02:53:47;;;;;;;37.25;26.15;;;11.90;99.90;;;;;;2507278;23;20014;-71
2022/04/15 02:54:48;;;;;;;37.55;25.63;;;11.80;99.90;;;;;;2507460;23;20011;-71
2022/04/15 02:55:49;;;;;;;35.95;25.17;;;11.80;99.90;;;;;;2506586;23;20018;-70
2022/04/15 02:56:50;;;;;;;39.47;26.23;;;11.80;99.90;;;;;;2494746;23;20561;-71
2022/04/15 02:57:51;;;;;;;35.97;25.27;;;11.80;99.90;;;;;;2494637;23;20010;-70
2022/04/15 02:58:52;;;;;;;36.88;24.92;;;11.80;99.90;;;;;;2507244;23;20456;-72
2022/04/15 02:59:52;;;;;;;39.20;25.88;;;11.70;99.90;;;;;;2507272;23;20051;-72
2022/04/15 03:00:53;;;;;;;37.65;25.50;;;11.70;99.90;;;;;;2507101;23;20078;-72
2022/04/15 03:01:54;;;;;;;35.50;24.65;;;11.70;99.90;;;;;;2507356;23;20007;-71
2022/04/15 03:02:54;;;;;;;36.88;24.90;;;11.60;99.90;;;;;;2507152;23;20376;-71
2022/04/15 03:03:55;;;;;;;37.35;24.75;;;11.60;99.90;;;;;;2506992;23;20667;-72
2022/04/15 03:04:55;;;;;;;37.33;25.42;;;11.60;99.90;;;;;;2506563;23;20395;-72
2022/04/15 03:05:56;;;;;;;41.95;28.02;;;11.50;99.90;;;;;;2506611;23;20415;-71
2022/04/15 03:06:57;;;;;;;41.05;27.65;;;11.50;99.90;;;;;;2506609;23;20502;-72
2022/04/15 03:07:57;;;;;;;39.55;27.05;;;11.50;99.90;;;;;;2506602;23;20412;-71
2022/04/15 03:08:59;;;;;;;41.38;28.10;;;11.40;99.90;;;;;;2506720;23;20007;-71
2022/04/15 03:09:59;;;;;;;39.53;26.25;;;11.40;99.90;;;;;;2506348;23;20015;-72
2022/04/15 03:11:00;;;;;;;39.35;26.38;;;11.40;99.90;;;;;;2506665;23;20006;-71
2022/04/15 03:12:01;;;;;;;40.88;27.33;;;11.40;99.90;;;;;;2507429;23;20011;-72
2022/04/15 03:13:02;;;;;;;39.83;26.83;;;11.40;99.90;;;;;;2507409;23;20022;-71
2022/04/15 03:14:02;;;;;;;40.35;25.73;;;11.30;99.90;;;;;;2506858;23;20014;-71
2022/04/15 03:15:04;;;;;;;38.80;26.50;;;11.30;99.90;;;;;;2507263;23;20397;-72
2022/04/15 03:16:05;;;;;;;38.95;26.02;;;11.30;99.90;;;;;;2506427;23;20007;-72
2022/04/15 03:17:06;;;;;;;36.85;25.33;;;11.30;99.90;;;;;;2506438;23;20102;-72
2022/04/15 03:18:06;;;;;;;39.00;26.10;;;11.20;99.90;;;;;;2506588;23;20007;-71
2022/04/15 03:19:07;;;;;;;37.58;25.95;;;11.20;99.90;;;;;;2506601;23;20033;-71
2022/04/15 03:20:08;;;;;;;42.83;28.17;;;11.20;99.90;;;;;;2506144;23;20054;-71
2022/04/15 03:21:09;;;;;;;45.42;29.85;;;11.20;99.90;;;;;;2506631;23;20006;-71
2022/04/15 03:22:10;;;;;;;52.67;33.30;;;11.20;99.90;;;;;;2507448;23;20011;-71
2022/04/15 03:23:10;;;;;;;53.38;34.40;;;11.30;99.90;;;;;;2507015;23;20412;-71
2022/04/15 03:24:11;;;;;;;50.70;32.70;;;11.30;99.90;;;;;;2507280;23;19999;-72
2022/04/15 03:25:15;;;;;;;50.65;32.83;;;11.30;99.90;;;;;;2507439;23;20026;-71
2022/04/15 03:26:15;;;;;;;50.67;32.83;;;11.20;99.90;;;;;;2507509;23;20400;-71
2022/04/15 03:27:16;;;;;;;48.90;31.27;;;11.20;99.90;;;;;;2507418;23;20066;-71
2022/04/15 03:28:17;;;;;;;46.38;30.92;;;11.20;99.90;;;;;;2494418;23;20682;-71
2022/04/15 03:29:17;;;;;;;46.00;30.15;;;11.30;99.90;;;;;;2495937;23;20067;-72
2022/04/15 03:30:18;;;;;;;43.15;28.88;;;11.30;99.90;;;;;;2507540;23;20019;-72
2022/04/15 03:31:19;;;;;;;42.65;28.10;;;11.30;99.90;;;;;;2508818;23;20011;-71
2022/04/15 03:32:19;;;;;;;42.88;28.27;;;11.30;99.90;;;;;;2508271;23;20006;-72
2022/04/15 03:33:20;;;;;;;50.88;32.15;;;11.30;99.90;;;;;;2507016;23;20007;-71
2022/04/15 03:34:20;;;;;;;56.85;36.15;;;11.30;99.90;;;;;;2507224;23;20006;-70
2022/04/15 03:35:21;;;;;;;56.70;36.03;;;11.30;99.90;;;;;;2506584;23;20050;-70
2022/04/15 03:36:22;;;;;;;56.83;34.88;;;11.40;99.90;;;;;;2506686;23;20444;-71
2022/04/15 03:37:23;;;;;;;52.80;33.13;;;11.30;99.90;;;;;;2507204;23;19999;-71
2022/04/15 03:38:24;;;;;;;50.03;32.75;;;11.40;99.90;;;;;;2507174;23;20083;-72
2022/04/15 03:39:24;;;;;;;50.03;33.60;;;11.40;99.90;;;;;;2507099;23;20118;-71
2022/04/15 03:40:25;;;;;;;49.58;31.90;;;11.40;99.90;;;;;;2506979;23;20011;-71
2022/04/15 03:41:26;;;;;;;43.70;30.42;;;11.40;99.90;;;;;;2507314;23;20031;-70
2022/04/15 03:42:26;;;;;;;45.38;30.15;;;11.40;99.90;;;;;;2507425;23;20066;-71
2022/04/15 03:43:27;;;;;;;47.85;31.25;;;11.40;99.90;;;;;;2506947;23;20336;-70
2022/04/15 03:44:28;;;;;;;44.97;30.50;;;11.40;99.90;;;;;;2507105;23;20082;-71
2022/04/15 03:45:28;;;;;;;43.67;30.27;;;11.40;99.90;;;;;;2507388;23;20031;-69
2022/04/15 03:46:29;;;;;;;48.30;31.60;;;11.40;99.90;;;;;;2494702;23;20011;-69
2022/04/15 03:47:29;;;;;;;44.88;30.55;;;11.40;99.90;;;;;;2494550;23;20049;-70
2022/04/15 03:48:30;;;;;;;45.72;30.33;;;11.40;99.90;;;;;;2507207;23;20061;-71
2022/04/15 03:49:31;;;;;;;43.33;29.33;;;11.40;99.90;;;;;;2507191;23;20090;-70
2022/04/15 03:50:33;;;;;;;45.47;30.40;;;11.40;99.90;;;;;;2507028;23;20007;-71
2022/04/15 03:51:34;;;;;;;42.60;29.55;;;11.40;99.90;;;;;;2507122;23;20003;-70
2022/04/15 03:52:42;;;;;;;44.88;31.05;;;11.40;99.90;;;;;;2507054;23;20022;-71
2022/04/15 03:53:42;;;;;;;46.47;30.70;;;11.50;99.90;;;;;;2506563;23;20061;-71
2022/04/15 03:54:43;;;;;;;44.65;29.42;;;11.40;99.90;;;;;;2507077;23;20455;-70
2022/04/15 03:55:44;;;;;;;44.65;30.60;;;11.40;99.90;;;;;;2506989;23;20031;-70
2022/04/15 03:56:46;;;;;;;43.30;28.90;;;11.40;99.90;;;;;;2506778;23;20011;-70
2022/04/15 03:57:48;;;;;;;44.35;29.73;;;11.40;99.90;;;;;;2507205;23;20420;-71
2022/04/15 03:58:48;;;;;;;47.25;29.40;;;11.50;99.90;;;;;;2508527;23;20018;-71
2022/04/15 03:59:49;;;;;;;41.80;29.02;;;11.40;99.90;;;;;;2508921;23;20006;-71
2022/04/15 04:00:50;;;;;;;41.35;28.25;;;11.40;99.90;;;;;;2507643;23;20086;-70
2022/04/15 04:01:50;;;;;;;45.05;29.15;;;11.40;99.90;;;;;;2507265;23;20763;-70
2022/04/15 04:02:53;;;;;;;42.97;28.50;;;11.40;99.90;;;;;;2508102;23;20003;-70
2022/04/15 04:03:54;;;;;;;47.45;31.10;;;11.50;99.90;;;;;;2507577;23;20392;-70
2022/04/15 04:04:54;;;;;;;47.22;31.67;;;11.40;99.90;;;;;;2508409;23;20054;-72
2022/04/15 04:05:55;;;;;;;49.10;32.28;;;11.50;99.90;;;;;;2509380;23;20011;-70
2022/04/15 04:06:55;;;;;;;48.17;31.63;;;11.50;99.90;;;;;;2496902;23;20044;-70
2022/04/15 04:07:56;;;;;;;54.15;35.58;;;11.50;99.90;;;;;;2496223;23;20075;-70
2022/04/15 04:08:56;;;;;;;53.50;35.72;;;11.50;99.90;;;;;;2507004;23;20010;-69
2022/04/15 04:09:57;;;;;;;52.92;35.55;;;11.50;99.90;;;;;;2506961;23;20022;-69
2022/04/15 04:10:58;;;;;;;55.67;36.95;;;11.50;99.90;;;;;;2507859;23;20017;-70
2022/04/15 04:11:58;;;;;;;56.50;37.60;;;11.50;99.90;;;;;;2507829;23;20158;-70
2022/04/15 04:12:59;;;;;;;60.45;38.58;;;11.60;99.90;;;;;;2507829;23;20082;-71
2022/04/15 04:13:59;;;;;;;55.03;36.28;;;11.60;99.90;;;;;;2494822;23;20684;-69
2022/04/15 04:15:01;;;;;;;54.08;35.40;;;11.60;99.90;;;;;;2495029;23;20078;-71
2022/04/15 04:16:02;;;;;;;58.25;37.45;;;11.60;99.90;;;;;;2507504;23;20718;-71
2022/04/15 04:17:02;;;;;;;62.58;38.60;;;11.60;99.90;;;;;;2507921;23;20034;-71
2022/04/15 04:18:03;;;;;;;53.55;36.17;;;11.60;99.90;;;;;;2507749;23;20003;-70
2022/04/15 04:19:04;;;;;;;50.15;34.58;;;11.60;99.90;;;;;;2507856;23;20015;-68
2022/04/15 04:20:07;;;;;;;53.42;36.13;;;11.60;99.90;;;;;;2507690;23;20010;-71
2022/04/15 04:21:07;;;;;;;58.10;37.30;;;11.60;99.90;;;;;;2507760;23;20010;-71
2022/04/15 04:22:08;;;;;;;55.33;37.75;;;11.60;99.90;;;;;;2507859;23;20351;-70
2022/04/15 04:23:08;;;;;;;62.42;39.90;;;11.60;99.90;;;;;;2507819;23;19995;-71
2022/04/15 04:24:09;;;;;;;56.65;38.08;;;11.60;99.90;;;;;;2507835;23;20003;-71
2022/04/15 04:25:10;;;;;;;55.67;36.92;;;11.60;99.90;;;;;;2507870;23;20487;-72
2022/04/15 04:26:11;;;;;;;57.05;36.20;;;11.60;99.90;;;;;;2507789;23;20007;-70
2022/04/15 04:27:11;;;;;;;51.40;34.58;;;11.60;99.90;;;;;;2507944;23;20014;-70
2022/04/15 04:28:12;;;;;;;50.53;35.22;;;11.60;99.90;;;;;;2507689;23;20066;-70
2022/04/15 04:29:12;;;;;;;55.50;36.65;;;11.60;99.90;;;;;;2507804;23;20089;-70
2022/04/15 04:30:14;;;;;;;51.28;34.28;;;11.60;99.90;;;;;;2507737;23;20007;-70
2022/04/15 04:31:15;;;;;;;53.03;35.05;;;11.60;99.90;;;;;;2507721;23;20033;-70
2022/04/15 04:32:17;;;;;;;61.25;38.80;;;11.60;99.90;;;;;;2507792;23;19998;-70
2022/04/15 04:33:17;;;;;;;58.35;38.35;;;11.60;99.90;;;;;;2507411;23;20003;-70
2022/04/15 04:34:18;;;;;;;57.65;38.58;;;11.70;99.90;;;;;;2507880;23;20011;-70
2022/04/15 04:35:20;;;;;;;54.42;36.50;;;11.70;99.90;;;;;;2507832;23;20467;-70
2022/04/15 04:36:21;;;;;;;52.17;34.45;;;11.70;99.90;;;;;;2507658;23;20015;-71
2022/04/15 04:37:21;;;;;;;52.22;34.28;;;11.70;99.90;;;;;;2507659;23;20003;-71
2022/04/15 04:38:22;;;;;;;46.30;32.13;;;11.70;99.90;;;;;;2507914;23;20003;-71
2022/04/15 04:39:25;;;;;;;48.55;33.17;;;11.80;99.90;;;;;;2507808;23;20010;-71
2022/04/15 04:40:26;;;;;;;46.45;32.25;;;11.80;99.90;;;;;;2507381;23;20007;-72
2022/04/15 04:41:27;;;;;;;56.58;37.03;;;11.80;99.90;;;;;;2506981;23;20003;-71
2022/04/15 04:42:28;;;;;;;56.50;38.33;;;11.80;99.90;;;;;;2507156;23;20002;-70
2022/04/15 04:43:29;;;;;;;54.67;36.70;;;11.80;99.90;;;;;;2507455;23;20396;-72
2022/04/15 04:44:33;;;;;;;54.45;37.55;;;11.80;99.90;;;;;;2507590;23;20086;-70
2022/04/15 04:45:35;;;;;;;62.65;40.55;;;11.80;99.90;;;;;;2495024;23;20008;-70
2022/04/15 04:46:36;;;;;;;59.90;38.58;;;11.90;99.90;;;;;;2495418;23;20038;-70
2022/04/15 04:47:42;;;;;;;60.95;39.88;;;11.90;99.90;;;;;;2495124;23;20038;-74
2022/04/15 04:48:43;;;;;;;61.47;41.03;;;11.90;99.90;;;;;;2484397;23;20095;-71
2022/04/15 04:49:44;;;;;;;56.22;37.25;;;11.90;99.90;;;;;;2495047;23;20011;-70
2022/04/15 04:50:46;;;;;;;58.88;39.97;;;11.90;99.90;;;;;;2507573;23;20011;-69
2022/04/15 04:51:47;;;;;;;60.67;41.45;;;11.90;99.90;;;;;;2507741;23;20007;-69
2022/04/15 04:52:48;;;;;;;61.58;41.00;;;11.90;99.90;;;;;;2506957;23;20022;-70
2022/04/15 04:53:49;;;;;;;64.05;42.15;;;11.90;99.90;;;;;;2506424;23;20510;-69
2022/04/15 04:54:50;;;;;;;66.55;42.70;;;11.90;99.90;;;;;;2507823;23;20011;-70
2022/04/15 04:55:51;;;;;;;63.92;42.25;;;11.90;99.90;;;;;;2507475;23;20562;-70
2022/04/15 04:56:51;;;;;;;64.60;41.70;;;11.80;99.90;;;;;;2508011;23;20058;-71
2022/04/15 04:57:55;;;;;;;62.80;42.80;;;11.80;99.90;;;;;;2506901;23;20341;-73
2022/04/15 04:58:55;;;;;;;63.60;43.08;;;11.80;99.90;;;;;;2507153;23;20018;-71
2022/04/15 04:59:56;;;;;;;61.17;40.95;;;11.80;99.90;;;;;;2507722;23;19998;-72
2022/04/15 05:00:57;;;;;;;62.45;43.15;;;11.80;99.90;;;;;;2507966;23;20006;-72
2022/04/15 05:01:58;;;;;;;62.97;42.42;;;11.80;99.90;;;;;;2507271;23;20415;-70
2022/04/15 05:02:59;;;;;;;63.90;42.95;;;11.80;99.90;;;;;;2507205;23;20033;-70
2022/04/15 05:04:00;;;;;;;64.85;42.92;;;11.80;99.90;;;;;;2507570;23;20026;-73
2022/04/15 05:05:01;;;;;;;64.70;43.22;;;11.80;99.90;;;;;;2507866;23;20007;-72
2022/04/15 05:06:03;;;;;;;65.95;43.58;;;11.80;99.90;;;;;;2507741;23;20043;-72
2022/04/15 05:07:04;;;;;;;60.70;41.50;;;11.80;99.90;;;;;;2507521;23;20078;-70
2022/04/15 05:08:05;;;;;;;57.28;38.92;;;11.80;99.90;;;;;;2503505;23;20013;-71
2022/04/15 05:09:06;;;;;;;63.35;43.38;;;11.80;99.90;;;;;;2494629;23;19999;-70
2022/04/15 05:10:07;;;;;;;66.35;44.35;;;11.80;99.90;;;;;;2494850;23;20011;-72
2022/04/15 05:11:08;;;;;;;63.45;43.42;;;11.80;99.90;;;;;;2506875;23;20014;-71